sensor_id;sensor_type;location;lat;lon;timestamp;temperature;humidity
34877;DHT22;21086;44.780;17.194;2023-03-23T00:01:20;11.50;99.90
34877;DHT22;21086;44.780;17.194;2023-03-23T00:03:49;11.40;99.90
34877;DHT22;21086;44.780;17.194;2023-03-23T00:06:16;11.30;99.90
34877;DHT22;21086;44.780;17.194;2023-03-23T00:08:45;11.20;99.90
34877;DHT22;21086;44.780;17.194;2023-03-23T00:11:20;11.20;99.90
34877;DHT22;21086;44.780;17.194;2023-03-23T00:13:47;11.20;99.90
34877;DHT22;21086;44.780;17.194;2023-03-23T00:16:16;11.10;99.90
34877;DHT22;21086;44.780;17.194;2023-03-23T00:18:47;11.20;99.90
34877;DHT22;21086;44.780;17.194;2023-03-23T00:21:14;11.20;99.90
34877;DHT22;21086;44.780;17.194;2023-03-23T00:23:40;11.10;99.90
34877;DHT22;21086;44.780;17.194;2023-03-23T00:26:06;11.00;99.90
34877;DHT22;21086;44.780;17.194;2023-03-23T00:28:32;11.00;99.90
34877;DHT22;21086;44.780;17.194;2023-03-23T00:31:03;11.00;99.90
34877;DHT22;21086;44.780;17.194;2023-03-23T00:33:31;11.10;99.90
34877;DHT22;21086;44.780;17.194;2023-03-23T00:36:04;11.10;99.90
34877;DHT22;21086;44.780;17.194;2023-03-23T00:38:31;11.10;99.90
34877;DHT22;21086;44.780;17.194;2023-03-23T00:40:57;11.10;99.90
34877;DHT22;21086;44.780;17.194;2023-03-23T00:43:24;11.00;99.90
34877;DHT22;21086;44.780;17.194;2023-03-23T00:45:50;11.10;99.90
34877;DHT22;21086;44.780;17.194;2023-03-23T00:48:21;11.10;99.90
34877;DHT22;21086;44.780;17.194;2023-03-23T00:50:48;11.00;99.90
34877;DHT22;21086;44.780;17.194;2023-03-23T00:53:15;11.00;99.90
34877;DHT22;21086;44.780;17.194;2023-03-23T00:55:42;11.00;99.90
34877;DHT22;21086;44.780;17.194;2023-03-23T00:58:09;11.00;99.90
34877;DHT22;21086;44.780;17.194;2023-03-23T01:00:36;11.00;99.90
34877;DHT22;21086;44.780;17.194;2023-03-23T01:03:02;10.90;99.90
34877;DHT22;21086;44.780;17.194;2023-03-23T01:05:28;10.70;99.90
34877;DHT22;21086;44.780;17.194;2023-03-23T01:07:58;10.70;99.90
34877;DHT22;21086;44.780;17.194;2023-03-23T01:10:24;10.50;99.90
34877;DHT22;21086;44.780;17.194;2023-03-23T01:12:52;10.40;99.90
34877;DHT22;21086;44.780;17.194;2023-03-23T01:15:19;10.40;99.90
34877;DHT22;21086;44.780;17.194;2023-03-23T01:17:45;10.40;99.90
34877;DHT22;21086;44.780;17.194;2023-03-23T01:20:12;10.50;99.90
34877;DHT22;21086;44.780;17.194;2023-03-23T01:22:39;10.50;99.90
34877;DHT22;21086;44.780;17.194;2023-03-23T01:25:06;10.50;99.90
34877;DHT22;21086;44.780;17.194;2023-03-23T01:27:32;10.50;99.90
34877;DHT22;21086;44.780;17.194;2023-03-23T01:29:58;10.50;99.90
34877;DHT22;21086;44.780;17.194;2023-03-23T01:32:24;10.40;99.90
34877;DHT22;21086;44.780;17.194;2023-03-23T01:34:50;10.40;99.90
34877;DHT22;21086;44.780;17.194;2023-03-23T01:37:16;10.30;99.90
34877;DHT22;21086;44.780;17.194;2023-03-23T01:39:42;10.40;99.90
34877;DHT22;21086;44.780;17.194;2023-03-23T01:42:11;10.40;99.90
34877;DHT22;21086;44.780;17.194;2023-03-23T01:47:03;10.30;99.90
34877;DHT22;21086;44.780;17.194;2023-03-23T01:49:45;10.30;99.90
34877;DHT22;21086;44.780;17.194;2023-03-23T01:52:24;10.20;99.90
34877;DHT22;21086;44.780;17.194;2023-03-23T01:54:53;10.20;99.90
34877;DHT22;21086;44.780;17.194;2023-03-23T01:57:24;10.20;99.90
34877;DHT22;21086;44.780;17.194;2023-03-23T01:59:57;10.20;99.90
34877;DHT22;21086;44.780;17.194;2023-03-23T02:02:26;10.30;99.90
34877;DHT22;21086;44.780;17.194;2023-03-23T02:04:57;10.30;99.90
34877;DHT22;21086;44.780;17.194;2023-03-23T02:07:25;10.30;99.90
34877;DHT22;21086;44.780;17.194;2023-03-23T02:09:51;10.30;99.90
34877;DHT22;21086;44.780;17.194;2023-03-23T02:12:18;10.40;99.90
34877;DHT22;21086;44.780;17.194;2023-03-23T02:14:44;10.40;99.90
34877;DHT22;21086;44.780;17.194;2023-03-23T02:34:00;10.30;99.90
34877;DHT22;21086;44.780;17.194;2023-03-23T02:39:09;10.20;99.90
34877;DHT22;21086;44.780;17.194;2023-03-23T02:41:47;10.30;99.90
34877;DHT22;21086;44.780;17.194;2023-03-23T02:44:14;10.20;99.90
34877;DHT22;21086;44.780;17.194;2023-03-23T02:46:42;10.20;99.90
34877;DHT22;21086;44.780;17.194;2023-03-23T02:49:12;10.10;99.90
34877;DHT22;21086;44.780;17.194;2023-03-23T02:51:40;10.00;99.90
34877;DHT22;21086;44.780;17.194;2023-03-23T02:54:08;10.00;99.90
34877;DHT22;21086;44.780;17.194;2023-03-23T02:56:35;9.90;99.90
34877;DHT22;21086;44.780;17.194;2023-03-23T02:59:01;9.90;99.90
34877;DHT22;21086;44.780;17.194;2023-03-23T03:03:56;9.90;99.90
34877;DHT22;21086;44.780;17.194;2023-03-23T03:11:45;9.80;99.90
34877;DHT22;21086;44.780;17.194;2023-03-23T03:14:21;9.80;99.90
34877;DHT22;21086;44.780;17.194;2023-03-23T03:19:50;9.80;99.90
34877;DHT22;21086;44.780;17.194;2023-03-23T03:22:19;9.80;99.90
34877;DHT22;21086;44.780;17.194;2023-03-23T03:24:47;9.90;99.90
34877;DHT22;21086;44.780;17.194;2023-03-23T03:27:18;9.90;99.90
34877;DHT22;21086;44.780;17.194;2023-03-23T03:29:48;9.90;99.90
34877;DHT22;21086;44.780;17.194;2023-03-23T03:32:19;9.90;99.90
34877;DHT22;21086;44.780;17.194;2023-03-23T03:34:49;9.90;99.90
34877;DHT22;21086;44.780;17.194;2023-03-23T03:37:17;9.80;99.90
34877;DHT22;21086;44.780;17.194;2023-03-23T03:39:44;9.80;99.90
34877;DHT22;21086;44.780;17.194;2023-03-23T03:42:10;9.70;99.90
34877;DHT22;21086;44.780;17.194;2023-03-23T03:44:36;9.70;99.90
34877;DHT22;21086;44.780;17.194;2023-03-23T03:47:03;9.60;99.90
34877;DHT22;21086;44.780;17.194;2023-03-23T03:49:29;9.60;99.90
34877;DHT22;21086;44.780;17.194;2023-03-23T03:51:55;9.60;99.90
34877;DHT22;21086;44.780;17.194;2023-03-23T03:54:21;9.60;99.90
34877;DHT22;21086;44.780;17.194;2023-03-23T03:56:47;9.60;99.90
34877;DHT22;21086;44.780;17.194;2023-03-23T03:59:13;9.50;99.90
34877;DHT22;21086;44.780;17.194;2023-03-23T04:01:39;9.50;99.90
34877;DHT22;21086;44.780;17.194;2023-03-23T04:04:05;9.40;99.90
34877;DHT22;21086;44.780;17.194;2023-03-23T04:06:33;9.40;99.90
34877;DHT22;21086;44.780;17.194;2023-03-23T04:09:03;9.30;99.90
34877;DHT22;21086;44.780;17.194;2023-03-23T04:11:32;9.30;99.90
34877;DHT22;21086;44.780;17.194;2023-03-23T04:13:59;9.30;99.90
34877;DHT22;21086;44.780;17.194;2023-03-23T04:16:25;9.20;99.90
34877;DHT22;21086;44.780;17.194;2023-03-23T04:18:51;9.20;99.90
34877;DHT22;21086;44.780;17.194;2023-03-23T04:21:17;9.10;99.90
34877;DHT22;21086;44.780;17.194;2023-03-23T04:23:43;9.20;99.90
34877;DHT22;21086;44.780;17.194;2023-03-23T04:26:09;9.20;99.90
34877;DHT22;21086;44.780;17.194;2023-03-23T04:28:39;9.20;99.90
34877;DHT22;21086;44.780;17.194;2023-03-23T04:31:06;9.10;99.90
34877;DHT22;21086;44.780;17.194;2023-03-23T04:33:32;9.10;99.90
34877;DHT22;21086;44.780;17.194;2023-03-23T04:36:00;9.20;99.90
34877;DHT22;21086;44.780;17.194;2023-03-23T04:38:28;9.20;99.90
34877;DHT22;21086;44.780;17.194;2023-03-23T04:40:55;9.30;99.90
34877;DHT22;21086;44.780;17.194;2023-03-23T04:43:23;9.20;99.90
34877;DHT22;21086;44.780;17.194;2023-03-23T04:45:56;9.30;99.90
34877;DHT22;21086;44.780;17.194;2023-03-23T04:48:24;9.20;99.90
34877;DHT22;21086;44.780;17.194;2023-03-23T04:50:50;9.30;99.90
34877;DHT22;21086;44.780;17.194;2023-03-23T04:53:16;9.30;99.90
34877;DHT22;21086;44.780;17.194;2023-03-23T04:55:44;9.30;99.90
34877;DHT22;21086;44.780;17.194;2023-03-23T04:58:10;8.30;99.90
34877;DHT22;21086;44.780;17.194;2023-03-23T05:00:38;9.30;99.90
34877;DHT22;21086;44.780;17.194;2023-03-23T05:03:04;9.30;99.90
34877;DHT22;21086;44.780;17.194;2023-03-23T05:05:31;9.40;99.90
34877;DHT22;21086;44.780;17.194;2023-03-23T05:08:00;9.40;99.90
34877;DHT22;21086;44.780;17.194;2023-03-23T05:10:26;9.30;99.90
34877;DHT22;21086;44.780;17.194;2023-03-23T05:12:53;9.40;99.90
34877;DHT22;21086;44.780;17.194;2023-03-23T05:15:20;9.40;99.90
34877;DHT22;21086;44.780;17.194;2023-03-23T05:17:46;9.40;99.90
34877;DHT22;21086;44.780;17.194;2023-03-23T05:20:16;9.40;99.90
34877;DHT22;21086;44.780;17.194;2023-03-23T05:22:46;9.50;99.90
34877;DHT22;21086;44.780;17.194;2023-03-23T05:25:17;9.60;99.90
34877;DHT22;21086;44.780;17.194;2023-03-23T05:27:46;9.50;99.90
34877;DHT22;21086;44.780;17.194;2023-03-23T05:30:15;9.50;99.90
34877;DHT22;21086;44.780;17.194;2023-03-23T05:32:43;9.50;99.90
34877;DHT22;21086;44.780;17.194;2023-03-23T05:35:11;9.50;99.90
34877;DHT22;21086;44.780;17.194;2023-03-23T05:37:37;9.50;99.90
34877;DHT22;21086;44.780;17.194;2023-03-23T05:40:05;9.50;99.90
34877;DHT22;21086;44.780;17.194;2023-03-23T05:42:33;9.60;99.90
34877;DHT22;21086;44.780;17.194;2023-03-23T05:45:01;9.70;99.90
34877;DHT22;21086;44.780;17.194;2023-03-23T05:47:27;9.80;99.90
34877;DHT22;21086;44.780;17.194;2023-03-23T05:49:53;9.90;99.90
34877;DHT22;21086;44.780;17.194;2023-03-23T05:52:20;10.00;99.90
34877;DHT22;21086;44.780;17.194;2023-03-23T05:54:46;10.10;99.90
34877;DHT22;21086;44.780;17.194;2023-03-23T05:57:13;10.30;99.90
34877;DHT22;21086;44.780;17.194;2023-03-23T05:59:38;10.30;99.90
34877;DHT22;21086;44.780;17.194;2023-03-23T06:02:04;10.50;99.90
34877;DHT22;21086;44.780;17.194;2023-03-23T06:04:31;10.60;99.90
34877;DHT22;21086;44.780;17.194;2023-03-23T06:07:02;10.70;99.90
34877;DHT22;21086;44.780;17.194;2023-03-23T06:09:28;10.80;99.90
34877;DHT22;21086;44.780;17.194;2023-03-23T06:11:54;10.90;99.90
34877;DHT22;21086;44.780;17.194;2023-03-23T06:14:20;11.10;99.90
34877;DHT22;21086;44.780;17.194;2023-03-23T06:16:46;11.20;99.90
34877;DHT22;21086;44.780;17.194;2023-03-23T06:19:13;11.30;99.90
34877;DHT22;21086;44.780;17.194;2023-03-23T06:21:40;11.50;99.90
34877;DHT22;21086;44.780;17.194;2023-03-23T06:24:07;11.60;99.90
34877;DHT22;21086;44.780;17.194;2023-03-23T06:26:38;11.60;99.90
34877;DHT22;21086;44.780;17.194;2023-03-23T06:29:05;11.70;99.90
34877;DHT22;21086;44.780;17.194;2023-03-23T06:31:40;11.80;99.90
34877;DHT22;21086;44.780;17.194;2023-03-23T06:34:08;11.90;99.90
34877;DHT22;21086;44.780;17.194;2023-03-23T06:36:35;12.00;99.90
34877;DHT22;21086;44.780;17.194;2023-03-23T06:39:02;12.10;99.90
34877;DHT22;21086;44.780;17.194;2023-03-23T06:41:33;12.20;99.90
34877;DHT22;21086;44.780;17.194;2023-03-23T06:43:59;12.20;99.90
34877;DHT22;21086;44.780;17.194;2023-03-23T06:46:26;12.30;99.90
34877;DHT22;21086;44.780;17.194;2023-03-23T06:48:53;12.40;99.90
34877;DHT22;21086;44.780;17.194;2023-03-23T06:51:20;12.50;99.90
34877;DHT22;21086;44.780;17.194;2023-03-23T06:53:46;12.50;99.90
34877;DHT22;21086;44.780;17.194;2023-03-23T06:56:13;12.60;99.90
34877;DHT22;21086;44.780;17.194;2023-03-23T06:58:39;12.70;99.90
34877;DHT22;21086;44.780;17.194;2023-03-23T07:01:07;12.90;99.90
34877;DHT22;21086;44.780;17.194;2023-03-23T07:03:34;13.10;99.90
34877;DHT22;21086;44.780;17.194;2023-03-23T07:05:59;13.20;99.90
34877;DHT22;21086;44.780;17.194;2023-03-23T07:08:25;13.30;99.90
34877;DHT22;21086;44.780;17.194;2023-03-23T07:10:55;13.40;99.90
34877;DHT22;21086;44.780;17.194;2023-03-23T07:13:22;13.50;99.90
34877;DHT22;21086;44.780;17.194;2023-03-23T07:15:47;13.60;99.90
34877;DHT22;21086;44.780;17.194;2023-03-23T07:18:15;13.70;99.90
34877;DHT22;21086;44.780;17.194;2023-03-23T07:20:41;13.80;99.90
34877;DHT22;21086;44.780;17.194;2023-03-23T07:23:07;14.00;99.90
34877;DHT22;21086;44.780;17.194;2023-03-23T07:25:34;14.10;99.90
34877;DHT22;21086;44.780;17.194;2023-03-23T07:28:02;14.20;99.90
34877;DHT22;21086;44.780;17.194;2023-03-23T07:30:29;14.30;99.90
34877;DHT22;21086;44.780;17.194;2023-03-23T07:32:56;14.40;99.90
34877;DHT22;21086;44.780;17.194;2023-03-23T07:35:23;14.40;99.90
34877;DHT22;21086;44.780;17.194;2023-03-23T07:37:50;14.50;99.90
34877;DHT22;21086;44.780;17.194;2023-03-23T07:40:18;14.60;99.90
34877;DHT22;21086;44.780;17.194;2023-03-23T07:42:46;14.80;99.90
34877;DHT22;21086;44.780;17.194;2023-03-23T07:45:15;14.90;99.90
34877;DHT22;21086;44.780;17.194;2023-03-23T07:47:41;15.00;99.90
34877;DHT22;21086;44.780;17.194;2023-03-23T07:50:08;15.10;99.90
34877;DHT22;21086;44.780;17.194;2023-03-23T07:52:35;15.10;99.90
34877;DHT22;21086;44.780;17.194;2023-03-23T07:55:03;15.20;99.90
34877;DHT22;21086;44.780;17.194;2023-03-23T07:57:30;15.40;99.90
34877;DHT22;21086;44.780;17.194;2023-03-23T07:59:57;15.50;99.90
34877;DHT22;21086;44.780;17.194;2023-03-23T08:02:24;15.60;99.90
34877;DHT22;21086;44.780;17.194;2023-03-23T08:04:50;15.70;99.90
34877;DHT22;21086;44.780;17.194;2023-03-23T08:07:17;15.70;99.90
34877;DHT22;21086;44.780;17.194;2023-03-23T08:09:45;15.80;99.90
34877;DHT22;21086;44.780;17.194;2023-03-23T08:12:11;16.00;99.90
34877;DHT22;21086;44.780;17.194;2023-03-23T08:14:37;16.10;99.90
34877;DHT22;21086;44.780;17.194;2023-03-23T08:17:04;16.20;99.90
34877;DHT22;21086;44.780;17.194;2023-03-23T08:19:30;16.40;99.90
34877;DHT22;21086;44.780;17.194;2023-03-23T08:21:56;16.40;99.90
34877;DHT22;21086;44.780;17.194;2023-03-23T08:24:22;16.50;99.90
34877;DHT22;21086;44.780;17.194;2023-03-23T08:26:49;16.60;99.90
34877;DHT22;21086;44.780;17.194;2023-03-23T08:29:15;16.60;99.90
34877;DHT22;21086;44.780;17.194;2023-03-23T08:31:42;16.70;99.90
34877;DHT22;21086;44.780;17.194;2023-03-23T08:34:10;16.80;99.90
34877;DHT22;21086;44.780;17.194;2023-03-23T08:36:36;16.90;99.90
34877;DHT22;21086;44.780;17.194;2023-03-23T08:39:03;17.10;99.90
34877;DHT22;21086;44.780;17.194;2023-03-23T08:41:31;17.20;99.90
34877;DHT22;21086;44.780;17.194;2023-03-23T08:43:57;17.30;99.90
34877;DHT22;21086;44.780;17.194;2023-03-23T08:46:23;17.50;99.90
34877;DHT22;21086;44.780;17.194;2023-03-23T08:48:49;17.60;99.90
34877;DHT22;21086;44.780;17.194;2023-03-23T08:51:16;17.70;99.90
34877;DHT22;21086;44.780;17.194;2023-03-23T08:53:42;17.80;99.90
34877;DHT22;21086;44.780;17.194;2023-03-23T08:56:11;17.90;99.90
34877;DHT22;21086;44.780;17.194;2023-03-23T08:58:38;18.10;99.90
34877;DHT22;21086;44.780;17.194;2023-03-23T09:01:06;18.30;99.90
34877;DHT22;21086;44.780;17.194;2023-03-23T09:03:34;18.40;99.90
34877;DHT22;21086;44.780;17.194;2023-03-23T09:06:02;18.40;99.90
34877;DHT22;21086;44.780;17.194;2023-03-23T09:08:28;18.50;99.90
34877;DHT22;21086;44.780;17.194;2023-03-23T09:10:59;18.60;99.90
34877;DHT22;21086;44.780;17.194;2023-03-23T09:13:25;18.80;99.90
34877;DHT22;21086;44.780;17.194;2023-03-23T09:15:51;19.00;99.90
34877;DHT22;21086;44.780;17.194;2023-03-23T09:18:18;19.20;99.90
34877;DHT22;21086;44.780;17.194;2023-03-23T09:20:45;19.40;99.90
34877;DHT22;21086;44.780;17.194;2023-03-23T09:23:12;19.90;99.90
34877;DHT22;21086;44.780;17.194;2023-03-23T09:25:38;19.80;99.90
34877;DHT22;21086;44.780;17.194;2023-03-23T09:28:05;19.90;99.90
34877;DHT22;21086;44.780;17.194;2023-03-23T09:30:32;20.00;99.90
34877;DHT22;21086;44.780;17.194;2023-03-23T09:33:00;20.20;99.90
34877;DHT22;21086;44.780;17.194;2023-03-23T09:35:27;20.30;99.90
34877;DHT22;21086;44.780;17.194;2023-03-23T09:37:54;20.50;99.90
34877;DHT22;21086;44.780;17.194;2023-03-23T09:40:22;20.60;99.90
34877;DHT22;21086;44.780;17.194;2023-03-23T09:49:01;21.10;99.90
34877;DHT22;21086;44.780;17.194;2023-03-23T09:51:56;21.30;99.90
34877;DHT22;21086;44.780;17.194;2023-03-23T09:54:51;21.50;99.90
34877;DHT22;21086;44.780;17.194;2023-03-23T10:05:48;22.40;99.90
34877;DHT22;21086;44.780;17.194;2023-03-23T10:08:19;22.70;99.90
34877;DHT22;21086;44.780;17.194;2023-03-23T10:13:24;23.40;99.90
34877;DHT22;21086;44.780;17.194;2023-03-23T10:15:51;23.70;99.90
34877;DHT22;21086;44.780;17.194;2023-03-23T10:18:20;24.00;99.90
34877;DHT22;21086;44.780;17.194;2023-03-23T10:20:59;24.50;99.90
34877;DHT22;21086;44.780;17.194;2023-03-23T10:23:46;25.00;99.90
34877;DHT22;21086;44.780;17.194;2023-03-23T10:28:46;26.20;99.90
34877;DHT22;21086;44.780;17.194;2023-03-23T10:31:17;26.30;99.90
34877;DHT22;21086;44.780;17.194;2023-03-23T10:33:47;26.70;99.90
34877;DHT22;21086;44.780;17.194;2023-03-23T10:36:35;27.40;99.90
34877;DHT22;21086;44.780;17.194;2023-03-23T10:39:12;28.70;99.90
34877;DHT22;21086;44.780;17.194;2023-03-23T10:41:42;29.70;99.90
34877;DHT22;21086;44.780;17.194;2023-03-23T10:44:20;30.70;99.90
34877;DHT22;21086;44.780;17.194;2023-03-23T10:47:05;31.30;99.90
34877;DHT22;21086;44.780;17.194;2023-03-23T10:49:59;32.00;99.90
34877;DHT22;21086;44.780;17.194;2023-03-23T10:52:41;32.90;99.90
34877;DHT22;21086;44.780;17.194;2023-03-23T10:57:36;34.20;99.90
34877;DHT22;21086;44.780;17.194;2023-03-23T11:02:38;35.40;99.90
34877;DHT22;21086;44.780;17.194;2023-03-23T11:05:19;36.50;99.90
34877;DHT22;21086;44.780;17.194;2023-03-23T11:07:54;36.80;99.90
34877;DHT22;21086;44.780;17.194;2023-03-23T11:10:42;36.90;99.90
34877;DHT22;21086;44.780;17.194;2023-03-23T11:13:14;37.50;99.90
34877;DHT22;21086;44.780;17.194;2023-03-23T11:15:42;38.30;99.90
34877;DHT22;21086;44.780;17.194;2023-03-23T11:18:13;38.90;99.90
34877;DHT22;21086;44.780;17.194;2023-03-23T11:20:44;40.30;99.90
34877;DHT22;21086;44.780;17.194;2023-03-23T11:23:28;40.80;99.90
34877;DHT22;21086;44.780;17.194;2023-03-23T11:28:55;41.80;99.90
34877;DHT22;21086;44.780;17.194;2023-03-23T11:31:35;42.20;99.90
34877;DHT22;21086;44.780;17.194;2023-03-23T11:34:17;42.90;99.90
34877;DHT22;21086;44.780;17.194;2023-03-23T11:36:55;43.50;99.90
34877;DHT22;21086;44.780;17.194;2023-03-23T11:42:22;43.90;99.90
34877;DHT22;21086;44.780;17.194;2023-03-23T11:44:48;44.00;99.90
34877;DHT22;21086;44.780;17.194;2023-03-23T11:47:29;44.00;99.80
34877;DHT22;21086;44.780;17.194;2023-03-23T11:53:31;43.20;95.40
34877;DHT22;21086;44.780;17.194;2023-03-23T11:58:35;43.60;92.80
34877;DHT22;21086;44.780;17.194;2023-03-23T12:01:11;42.70;90.90
34877;DHT22;21086;44.780;17.194;2023-03-23T12:04:09;41.80;87.60
34877;DHT22;21086;44.780;17.194;2023-03-23T12:38:01;42.00;77.60
34877;DHT22;21086;44.780;17.194;2023-03-23T12:40:38;41.90;76.50
34877;DHT22;21086;44.780;17.194;2023-03-23T12:43:25;43.00;75.80
34877;DHT22;21086;44.780;17.194;2023-03-23T12:57:16;47.00;67.70
34877;DHT22;21086;44.780;17.194;2023-03-23T12:59:48;46.70;62.10
34877;DHT22;21086;44.780;17.194;2023-03-23T13:02:35;45.80;58.80
34877;DHT22;21086;44.780;17.194;2023-03-23T13:07:46;45.10;55.10
34877;DHT22;21086;44.780;17.194;2023-03-23T13:12:46;43.40;51.90
34877;DHT22;21086;44.780;17.194;2023-03-23T13:18:00;41.30;48.90
34877;DHT22;21086;44.780;17.194;2023-03-23T13:20:53;42.10;49.20
34877;DHT22;21086;44.780;17.194;2023-03-23T13:23:26;43.20;49.60
34877;DHT22;21086;44.780;17.194;2023-03-23T13:26:00;43.70;49.20
34877;DHT22;21086;44.780;17.194;2023-03-23T13:28:29;45.00;49.90
34877;DHT22;21086;44.780;17.194;2023-03-23T13:31:00;45.60;50.00
34877;DHT22;21086;44.780;17.194;2023-03-23T13:33:35;45.30;48.80
34877;DHT22;21086;44.780;17.194;2023-03-23T13:36:11;45.00;47.20
34877;DHT22;21086;44.780;17.194;2023-03-23T13:38:44;44.30;46.60
34877;DHT22;21086;44.780;17.194;2023-03-23T13:41:14;42.80;44.10
34877;DHT22;21086;44.780;17.194;2023-03-23T13:43:42;41.50;42.80
34877;DHT22;21086;44.780;17.194;2023-03-23T13:46:29;39.90;41.50
34877;DHT22;21086;44.780;17.194;2023-03-23T13:49:18;38.50;40.50
34877;DHT22;21086;44.780;17.194;2023-03-23T13:54:23;36.40;41.40
34877;DHT22;21086;44.780;17.194;2023-03-23T13:56:55;36.00;41.50
34877;DHT22;21086;44.780;17.194;2023-03-23T13:59:31;35.80;41.80
34877;DHT22;21086;44.780;17.194;2023-03-23T14:02:27;35.90;43.20
34877;DHT22;21086;44.780;17.194;2023-03-23T14:04:54;36.80;43.80
34877;DHT22;21086;44.780;17.194;2023-03-23T14:07:20;38.20;45.80
34877;DHT22;21086;44.780;17.194;2023-03-23T14:09:46;40.00;46.90
34877;DHT22;21086;44.780;17.194;2023-03-23T14:12:21;42.00;48.30
34877;DHT22;21086;44.780;17.194;2023-03-23T14:14:50;42.30;47.40
34877;DHT22;21086;44.780;17.194;2023-03-23T14:17:25;41.40;45.70
34877;DHT22;21086;44.780;17.194;2023-03-23T14:19:56;40.50;45.10
34877;DHT22;21086;44.780;17.194;2023-03-23T14:22:24;39.50;43.70
34877;DHT22;21086;44.780;17.194;2023-03-23T14:24:53;39.20;43.00
34877;DHT22;21086;44.780;17.194;2023-03-23T14:27:24;39.50;43.70
34877;DHT22;21086;44.780;17.194;2023-03-23T14:30:03;40.40;44.00
34877;DHT22;21086;44.780;17.194;2023-03-23T14:32:31;41.70;44.40
34877;DHT22;21086;44.780;17.194;2023-03-23T14:34:59;42.90;45.50
34877;DHT22;21086;44.780;17.194;2023-03-23T14:37:25;43.70;44.90
34877;DHT22;21086;44.780;17.194;2023-03-23T14:39:53;44.40;44.00
34877;DHT22;21086;44.780;17.194;2023-03-23T14:42:31;45.00;43.90
34877;DHT22;21086;44.780;17.194;2023-03-23T14:44:59;45.50;42.80
34877;DHT22;21086;44.780;17.194;2023-03-23T14:47:38;45.60;41.50
34877;DHT22;21086;44.780;17.194;2023-03-23T14:50:18;45.90;40.20
34877;DHT22;21086;44.780;17.194;2023-03-23T14:52:47;45.60;38.60
34877;DHT22;21086;44.780;17.194;2023-03-23T14:55:20;45.70;37.80
34877;DHT22;21086;44.780;17.194;2023-03-23T14:57:48;45.10;36.20
34877;DHT22;21086;44.780;17.194;2023-03-23T15:00:32;44.00;34.20
34877;DHT22;21086;44.780;17.194;2023-03-23T15:03:01;41.80;32.00
34877;DHT22;21086;44.780;17.194;2023-03-23T15:05:37;39.80;31.10
34877;DHT22;21086;44.780;17.194;2023-03-23T15:08:11;37.90;29.60
34877;DHT22;21086;44.780;17.194;2023-03-23T15:10:39;36.50;30.10
34877;DHT22;21086;44.780;17.194;2023-03-23T15:13:05;36.60;31.10
34877;DHT22;21086;44.780;17.194;2023-03-23T15:15:35;37.50;32.60
34877;DHT22;21086;44.780;17.194;2023-03-23T15:18:02;37.90;32.90
34877;DHT22;21086;44.780;17.194;2023-03-23T15:20:46;38.20;33.60
34877;DHT22;21086;44.780;17.194;2023-03-23T15:23:22;38.20;33.90
34877;DHT22;21086;44.780;17.194;2023-03-23T15:25:53;38.80;34.50
34877;DHT22;21086;44.780;17.194;2023-03-23T15:28:27;39.30;35.40
34877;DHT22;21086;44.780;17.194;2023-03-23T15:30:55;38.70;34.60
34877;DHT22;21086;44.780;17.194;2023-03-23T15:33:24;37.60;33.90
34877;DHT22;21086;44.780;17.194;2023-03-23T15:35:55;36.50;33.30
34877;DHT22;21086;44.780;17.194;2023-03-23T15:38:24;35.20;33.00
34877;DHT22;21086;44.780;17.194;2023-03-23T15:40:53;34.00;33.70
34877;DHT22;21086;44.780;17.194;2023-03-23T15:43:24;33.20;33.80
34877;DHT22;21086;44.780;17.194;2023-03-23T15:48:48;32.30;35.20
34877;DHT22;21086;44.780;17.194;2023-03-23T15:51:15;32.60;36.80
34877;DHT22;21086;44.780;17.194;2023-03-23T15:53:42;32.90;37.50
34877;DHT22;21086;44.780;17.194;2023-03-23T15:56:10;33.00;38.30
34877;DHT22;21086;44.780;17.194;2023-03-23T15:58:37;33.30;39.50
34877;DHT22;21086;44.780;17.194;2023-03-23T16:01:20;33.80;39.80
34877;DHT22;21086;44.780;17.194;2023-03-23T16:03:56;33.50;39.80
34877;DHT22;21086;44.780;17.194;2023-03-23T16:06:27;32.90;40.40
34877;DHT22;21086;44.780;17.194;2023-03-23T16:08:55;32.30;40.50
34877;DHT22;21086;44.780;17.194;2023-03-23T16:11:24;31.80;40.60
34877;DHT22;21086;44.780;17.194;2023-03-23T16:13:51;31.40;41.30
34877;DHT22;21086;44.780;17.194;2023-03-23T16:16:41;30.80;41.70
34877;DHT22;21086;44.780;17.194;2023-03-23T16:19:13;30.20;43.70
34877;DHT22;21086;44.780;17.194;2023-03-23T16:21:41;29.50;43.00
34877;DHT22;21086;44.780;17.194;2023-03-23T16:24:09;29.40;45.20
34877;DHT22;21086;44.780;17.194;2023-03-23T16:26:36;29.60;46.80
34877;DHT22;21086;44.780;17.194;2023-03-23T16:29:11;29.60;47.40
34877;DHT22;21086;44.780;17.194;2023-03-23T16:31:50;29.10;47.70
34877;DHT22;21086;44.780;17.194;2023-03-23T16:34:17;28.70;48.70
34877;DHT22;21086;44.780;17.194;2023-03-23T16:36:44;28.10;49.10
34877;DHT22;21086;44.780;17.194;2023-03-23T16:39:11;27.50;49.80
34877;DHT22;21086;44.780;17.194;2023-03-23T16:41:38;27.10;50.90
34877;DHT22;21086;44.780;17.194;2023-03-23T16:44:06;26.70;51.80
34877;DHT22;21086;44.780;17.194;2023-03-23T16:46:33;26.30;53.30
34877;DHT22;21086;44.780;17.194;2023-03-23T16:49:00;25.80;54.40
34877;DHT22;21086;44.780;17.194;2023-03-23T16:51:27;25.40;56.50
34877;DHT22;21086;44.780;17.194;2023-03-23T16:53:54;25.00;58.20
34877;DHT22;21086;44.780;17.194;2023-03-23T16:56:21;24.60;59.80
34877;DHT22;21086;44.780;17.194;2023-03-23T16:58:48;24.20;62.20
34877;DHT22;21086;44.780;17.194;2023-03-23T17:01:15;23.90;64.60
34877;DHT22;21086;44.780;17.194;2023-03-23T17:03:42;23.60;68.30
34877;DHT22;21086;44.780;17.194;2023-03-23T17:06:09;24.70;88.00
34877;DHT22;21086;44.780;17.194;2023-03-23T17:08:36;23.20;74.10
34877;DHT22;21086;44.780;17.194;2023-03-23T17:11:04;23.00;76.30
34877;DHT22;21086;44.780;17.194;2023-03-23T17:13:33;22.80;79.10
34877;DHT22;21086;44.780;17.194;2023-03-23T17:16:00;22.70;81.80
34877;DHT22;21086;44.780;17.194;2023-03-23T17:18:27;22.60;84.80
34877;DHT22;21086;44.780;17.194;2023-03-23T17:20:55;22.50;88.10
34877;DHT22;21086;44.780;17.194;2023-03-23T17:23:22;22.40;90.40
34877;DHT22;21086;44.780;17.194;2023-03-23T17:25:50;22.20;91.30
34877;DHT22;21086;44.780;17.194;2023-03-23T17:28:17;21.90;92.00
34877;DHT22;21086;44.780;17.194;2023-03-23T17:30:47;21.80;93.40
34877;DHT22;21086;44.780;17.194;2023-03-23T17:33:14;21.70;94.40
34877;DHT22;21086;44.780;17.194;2023-03-23T17:35:41;21.50;95.10
34877;DHT22;21086;44.780;17.194;2023-03-23T17:38:09;21.40;96.50